sensor_id;sensor_type;location;lat;lon;timestamp;pressure;altitude;pressure_sealevel;temperature;humidity
5872;BME280;2962;51.312;7.378;2023-03-20T00:00:37;97716.16;;;7.21;100.00
5872;BME280;2962;51.312;7.378;2023-03-20T00:03:03;97709.94;;;7.21;100.00
5872;BME280;2962;51.312;7.378;2023-03-20T00:05:30;97718.19;;;7.24;100.00
5872;BME280;2962;51.312;7.378;2023-03-20T00:07:56;97717.53;;;7.15;100.00
5872;BME280;2962;51.312;7.378;2023-03-20T00:10:27;97711.88;;;7.08;100.00
5872;BME280;2962;51.312;7.378;2023-03-20T00:12:54;97710.38;;;6.98;100.00
5872;BME280;2962;51.312;7.378;2023-03-20T00:15:28;97718.41;;;6.95;100.00
5872;BME280;2962;51.312;7.378;2023-03-20T00:17:54;97723.50;;;6.96;100.00
5872;BME280;2962;51.312;7.378;2023-03-20T00:20:20;97722.91;;;6.91;100.00
5872;BME280;2962;51.312;7.378;2023-03-20T00:22:45;97729.00;;;6.88;100.00
5872;BME280;2962;51.312;7.378;2023-03-20T00:25:16;97732.84;;;6.87;100.00
5872;BME280;2962;51.312;7.378;2023-03-20T00:27:44;97726.97;;;6.84;100.00
5872;BME280;2962;51.312;7.378;2023-03-20T00:30:33;97725.72;;;6.82;100.00
5872;BME280;2962;51.312;7.378;2023-03-20T00:32:58;97733.97;;;6.73;100.00
5872;BME280;2962;51.312;7.378;2023-03-20T00:35:25;97727.75;;;6.73;100.00
5872;BME280;2962;51.312;7.378;2023-03-20T00:37:52;97725.06;;;6.73;100.00
5872;BME280;2962;51.312;7.378;2023-03-20T00:40:19;97731.91;;;6.70;100.00
5872;BME280;2962;51.312;7.378;2023-03-20T00:42:48;97734.16;;;6.68;100.00
5872;BME280;2962;51.312;7.378;2023-03-20T00:45:17;97737.44;;;6.62;100.00
5872;BME280;2962;51.312;7.378;2023-03-20T00:47:44;97741.69;;;6.50;100.00
5872;BME280;2962;51.312;7.378;2023-03-20T00:50:15;97737.03;;;6.39;100.00
5872;BME280;2962;51.312;7.378;2023-03-20T00:52:41;97726.03;;;6.23;100.00
5872;BME280;2962;51.312;7.378;2023-03-20T00:55:06;97740.34;;;6.23;100.00
5872;BME280;2962;51.312;7.378;2023-03-20T01:02:52;97744.91;;;6.10;100.00
5872;BME280;2962;51.312;7.378;2023-03-20T01:05:19;97733.94;;;6.07;100.00
5872;BME280;2962;51.312;7.378;2023-03-20T01:07:44;97744.59;;;6.12;100.00
5872;BME280;2962;51.312;7.378;2023-03-20T01:10:11;97716.72;;;5.91;100.00
5872;BME280;2962;51.312;7.378;2023-03-20T01:12:40;97738.00;;;6.01;100.00
5872;BME280;2962;51.312;7.378;2023-03-20T01:15:21;97739.47;;;5.90;100.00
5872;BME280;2962;51.312;7.378;2023-03-20T01:17:47;97743.19;;;5.85;100.00
5872;BME280;2962;51.312;7.378;2023-03-20T01:20:16;97736.50;;;5.82;100.00
5872;BME280;2962;51.312;7.378;2023-03-20T01:22:41;97720.63;;;5.81;100.00
5872;BME280;2962;51.312;7.378;2023-03-20T01:25:07;97726.97;;;5.85;100.00
5872;BME280;2962;51.312;7.378;2023-03-20T01:27:33;97734.16;;;5.81;100.00
5872;BME280;2962;51.312;7.378;2023-03-20T01:29:58;97728.75;;;5.81;100.00
5872;BME280;2962;51.312;7.378;2023-03-20T01:32:23;97729.31;;;5.86;100.00
5872;BME280;2962;51.312;7.378;2023-03-20T01:34:48;97737.44;;;5.86;100.00
5872;BME280;2962;51.312;7.378;2023-03-20T01:37:24;97733.28;;;5.89;100.00
5872;BME280;2962;51.312;7.378;2023-03-20T01:43:15;97731.97;;;5.95;100.00
5872;BME280;2962;51.312;7.378;2023-03-20T01:46:12;97729.63;;;5.94;100.00
5872;BME280;2962;51.312;7.378;2023-03-20T01:51:34;97719.28;;;5.87;100.00
5872;BME280;2962;51.312;7.378;2023-03-20T01:54:08;97726.31;;;5.88;100.00
5872;BME280;2962;51.312;7.378;2023-03-20T01:56:55;97733.59;;;5.87;100.00
5872;BME280;2962;51.312;7.378;2023-03-20T01:59:29;97736.38;;;5.79;100.00
5872;BME280;2962;51.312;7.378;2023-03-20T02:01:55;97745.00;;;5.72;100.00
5872;BME280;2962;51.312;7.378;2023-03-20T02:04:26;97743.13;;;5.73;100.00
5872;BME280;2962;51.312;7.378;2023-03-20T02:06:53;97748.19;;;5.74;100.00
5872;BME280;2962;51.312;7.378;2023-03-20T02:09:18;97736.06;;;5.80;100.00
5872;BME280;2962;51.312;7.378;2023-03-20T02:11:45;97721.88;;;5.83;100.00
5872;BME280;2962;51.312;7.378;2023-03-20T02:14:12;97720.94;;;5.79;100.00
5872;BME280;2962;51.312;7.378;2023-03-20T02:16:38;97710.13;;;5.79;100.00
5872;BME280;2962;51.312;7.378;2023-03-20T02:19:04;97711.47;;;5.73;100.00
5872;BME280;2962;51.312;7.378;2023-03-20T02:21:56;97722.00;;;5.87;100.00
5872;BME280;2962;51.312;7.378;2023-03-20T02:27:29;97728.34;;;5.70;100.00
5872;BME280;2962;51.312;7.378;2023-03-20T02:46:45;97713.16;;;5.57;100.00
5872;BME280;2962;51.312;7.378;2023-03-20T02:52:24;97707.75;;;5.57;100.00
5872;BME280;2962;51.312;7.378;2023-03-20T02:55:13;97707.50;;;5.71;100.00
5872;BME280;2962;51.312;7.378;2023-03-20T02:57:56;97712.31;;;5.65;100.00
5872;BME280;2962;51.312;7.378;2023-03-20T03:00:33;97716.09;;;5.73;100.00
5872;BME280;2962;51.312;7.378;2023-03-20T03:03:26;97728.78;;;5.72;100.00
5872;BME280;2962;51.312;7.378;2023-03-20T03:06:09;97723.81;;;5.53;100.00
5872;BME280;2962;51.312;7.378;2023-03-20T03:08:42;97722.25;;;5.52;100.00
5872;BME280;2962;51.312;7.378;2023-03-20T03:11:08;97727.06;;;5.47;100.00
5872;BME280;2962;51.312;7.378;2023-03-20T03:13:37;97734.63;;;5.53;100.00
5872;BME280;2962;51.312;7.378;2023-03-20T03:16:14;97742.28;;;5.51;100.00
5872;BME280;2962;51.312;7.378;2023-03-20T03:18:42;97742.63;;;5.50;100.00
5872;BME280;2962;51.312;7.378;2023-03-20T03:21:10;97718.19;;;5.37;100.00
5872;BME280;2962;51.312;7.378;2023-03-20T03:23:47;97746.28;;;5.45;100.00
5872;BME280;2962;51.312;7.378;2023-03-20T03:26:27;97751.56;;;5.42;100.00
5872;BME280;2962;51.312;7.378;2023-03-20T03:28:57;97746.84;;;5.30;100.00
5872;BME280;2962;51.312;7.378;2023-03-20T03:31:25;97748.91;;;5.33;100.00
5872;BME280;2962;51.312;7.378;2023-03-20T03:33:54;97755.09;;;5.33;100.00
5872;BME280;2962;51.312;7.378;2023-03-20T03:36:43;97760.66;;;5.37;100.00
5872;BME280;2962;51.312;7.378;2023-03-20T03:45:14;97725.38;;;5.33;100.00
5872;BME280;2962;51.312;7.378;2023-03-20T03:47:59;97714.53;;;5.42;100.00
5872;BME280;2962;51.312;7.378;2023-03-20T03:50:48;97705.81;;;5.36;100.00
5872;BME280;2962;51.312;7.378;2023-03-20T03:53:19;97705.38;;;5.34;100.00
5872;BME280;2962;51.312;7.378;2023-03-20T03:55:53;97697.00;;;5.48;100.00
5872;BME280;2962;51.312;7.378;2023-03-20T03:58:28;97688.69;;;5.32;100.00
5872;BME280;2962;51.312;7.378;2023-03-20T04:00:57;97688.88;;;5.27;100.00
5872;BME280;2962;51.312;7.378;2023-03-20T04:03:28;97675.31;;;5.15;100.00
5872;BME280;2962;51.312;7.378;2023-03-20T04:05:55;97679.31;;;5.30;100.00
5872;BME280;2962;51.312;7.378;2023-03-20T04:08:22;97663.25;;;5.33;100.00
5872;BME280;2962;51.312;7.378;2023-03-20T04:10:47;97665.72;;;5.18;100.00
5872;BME280;2962;51.312;7.378;2023-03-20T04:13:12;97682.34;;;5.28;100.00
5872;BME280;2962;51.312;7.378;2023-03-20T04:15:38;97685.84;;;5.29;100.00
5872;BME280;2962;51.312;7.378;2023-03-20T04:18:04;97706.75;;;5.41;100.00
5872;BME280;2962;51.312;7.378;2023-03-20T04:20:29;97705.16;;;5.39;100.00
5872;BME280;2962;51.312;7.378;2023-03-20T04:22:55;97709.13;;;5.42;100.00
5872;BME280;2962;51.312;7.378;2023-03-20T04:25:22;97713.16;;;5.57;100.00
5872;BME280;2962;51.312;7.378;2023-03-20T04:27:49;97712.56;;;5.51;100.00
5872;BME280;2962;51.312;7.378;2023-03-20T04:30:15;97715.59;;;5.50;100.00
5872;BME280;2962;51.312;7.378;2023-03-20T04:32:40;97705.97;;;5.40;100.00
5872;BME280;2962;51.312;7.378;2023-03-20T04:35:06;97721.31;;;5.48;100.00
5872;BME280;2962;51.312;7.378;2023-03-20T04:37:31;97714.41;;;5.38;100.00
5872;BME280;2962;51.312;7.378;2023-03-20T04:39:57;97705.22;;;5.31;100.00
5872;BME280;2962;51.312;7.378;2023-03-20T04:42:22;97716.81;;;5.31;100.00
5872;BME280;2962;51.312;7.378;2023-03-20T04:44:47;97710.56;;;5.39;100.00
5872;BME280;2962;51.312;7.378;2023-03-20T04:47:12;97706.75;;;5.41;100.00
5872;BME280;2962;51.312;7.378;2023-03-20T04:49:38;97711.22;;;5.36;100.00
5872;BME280;2962;51.312;7.378;2023-03-20T04:52:03;97687.75;;;5.28;100.00
5872;BME280;2962;51.312;7.378;2023-03-20T04:54:28;97698.44;;;5.25;100.00
5872;BME280;2962;51.312;7.378;2023-03-20T04:56:54;97686.97;;;5.28;100.00
5872;BME280;2962;51.312;7.378;2023-03-20T04:59:19;97682.34;;;5.28;100.00
5872;BME280;2962;51.312;7.378;2023-03-20T05:01:45;97690.22;;;5.42;100.00
5872;BME280;2962;51.312;7.378;2023-03-20T05:04:10;97670.69;;;5.16;100.00
5872;BME280;2962;51.312;7.378;2023-03-20T05:06:36;97676.03;;;5.24;100.00
5872;BME280;2962;51.312;7.378;2023-03-20T05:09:01;97683.28;;;5.32;100.00
5872;BME280;2962;51.312;7.378;2023-03-20T05:11:27;97677.75;;;5.29;100.00
5872;BME280;2962;51.312;7.378;2023-03-20T05:13:53;97660.47;;;5.21;100.00
5872;BME280;2962;51.312;7.378;2023-03-20T05:16:19;97662.38;;;5.21;100.00
5872;BME280;2962;51.312;7.378;2023-03-20T05:18:44;97654.00;;;5.13;100.00
5872;BME280;2962;51.312;7.378;2023-03-20T05:21:09;97657.41;;;5.02;100.00
5872;BME280;2962;51.312;7.378;2023-03-20T05:23:35;97663.09;;;5.09;100.00
5872;BME280;2962;51.312;7.378;2023-03-20T05:26:01;97648.09;;;5.20;100.00
5872;BME280;2962;51.312;7.378;2023-03-20T05:28:27;97660.16;;;4.93;100.00
5872;BME280;2962;51.312;7.378;2023-03-20T05:30:52;97667.97;;;5.16;100.00
5872;BME280;2962;51.312;7.378;2023-03-20T05:33:17;97670.34;;;5.17;100.00
5872;BME280;2962;51.312;7.378;2023-03-20T05:35:43;97667.56;;;5.05;100.00
5872;BME280;2962;51.312;7.378;2023-03-20T05:38:08;97666.16;;;4.99;100.00
5872;BME280;2962;51.312;7.378;2023-03-20T05:40:33;97673.16;;;5.00;100.00
5872;BME280;2962;51.312;7.378;2023-03-20T05:42:59;97662.53;;;4.95;100.00
5872;BME280;2962;51.312;7.378;2023-03-20T05:45:24;97678.50;;;5.08;100.00
5872;BME280;2962;51.312;7.378;2023-03-20T05:47:49;97689.13;;;5.13;100.00
5872;BME280;2962;51.312;7.378;2023-03-20T05:50:15;97699.72;;;5.19;100.00
5872;BME280;2962;51.312;7.378;2023-03-20T05:52:40;97694.66;;;5.17;100.00
5872;BME280;2962;51.312;7.378;2023-03-20T05:55:06;97708.44;;;5.24;100.00
5872;BME280;2962;51.312;7.378;2023-03-20T05:57:31;97706.88;;;5.23;100.00
5872;BME280;2962;51.312;7.378;2023-03-20T05:59:57;97712.06;;;5.28;100.00
5872;BME280;2962;51.312;7.378;2023-03-20T06:02:22;97702.91;;;5.21;100.00
5872;BME280;2962;51.312;7.378;2023-03-20T06:04:47;97695.59;;;5.21;100.00
5872;BME280;2962;51.312;7.378;2023-03-20T06:07:13;97708.72;;;5.31;100.00
5872;BME280;2962;51.312;7.378;2023-03-20T06:09:38;97697.56;;;5.33;100.00
5872;BME280;2962;51.312;7.378;2023-03-20T06:12:03;97685.72;;;5.25;100.00
5872;BME280;2962;51.312;7.378;2023-03-20T06:14:29;97701.81;;;5.43;100.00
5872;BME280;2962;51.312;7.378;2023-03-20T06:16:54;97697.00;;;5.48;100.00
5872;BME280;2962;51.312;7.378;2023-03-20T06:19:21;97689.53;;;5.24;100.00
5872;BME280;2962;51.312;7.378;2023-03-20T06:21:47;97682.88;;;5.22;100.00
5872;BME280;2962;51.312;7.378;2023-03-20T06:24:13;97680.72;;;5.06;100.00
5872;BME280;2962;51.312;7.378;2023-03-20T06:26:39;97692.44;;;5.19;100.00
5872;BME280;2962;51.312;7.378;2023-03-20T06:29:05;97685.13;;;5.20;100.00
5872;BME280;2962;51.312;7.378;2023-03-20T06:31:30;97691.59;;;5.27;100.00
5872;BME280;2962;51.312;7.378;2023-03-20T06:33:55;97676.53;;;5.18;100.00
5872;BME280;2962;51.312;7.378;2023-03-20T06:36:21;97683.72;;;5.13;100.00
5872;BME280;2962;51.312;7.378;2023-03-20T06:38:47;97701.97;;;5.46;100.00
5872;BME280;2962;51.312;7.378;2023-03-20T06:41:12;97707.94;;;5.52;100.00
5872;BME280;2962;51.312;7.378;2023-03-20T06:43:37;97719.69;;;5.56;100.00
5872;BME280;2962;51.312;7.378;2023-03-20T06:46:04;97711.03;;;5.42;100.00
5872;BME280;2962;51.312;7.378;2023-03-20T06:48:30;97725.84;;;5.35;100.00
5872;BME280;2962;51.312;7.378;2023-03-20T06:50:55;97721.31;;;5.27;100.00
5872;BME280;2962;51.312;7.378;2023-03-20T06:53:20;97716.34;;;5.29;100.00
5872;BME280;2962;51.312;7.378;2023-03-20T06:55:47;97720.38;;;5.23;100.00
5872;BME280;2962;51.312;7.378;2023-03-20T06:58:12;97698.94;;;5.18;100.00
5872;BME280;2962;51.312;7.378;2023-03-20T07:00:38;97715.19;;;5.39;100.00
5872;BME280;2962;51.312;7.378;2023-03-20T07:03:04;97724.16;;;5.31;100.00
5872;BME280;2962;51.312;7.378;2023-03-20T07:05:29;97735.16;;;5.47;100.00
5872;BME280;2962;51.312;7.378;2023-03-20T07:07:54;97743.69;;;5.57;100.00
5872;BME280;2962;51.312;7.378;2023-03-20T07:10:19;97716.91;;;5.44;100.00
5872;BME280;2962;51.312;7.378;2023-03-20T07:12:45;97731.91;;;5.32;100.00
5872;BME280;2962;51.312;7.378;2023-03-20T07:15:10;97731.69;;;5.46;100.00
5872;BME280;2962;51.312;7.378;2023-03-20T07:17:36;97742.84;;;5.36;100.00
5872;BME280;2962;51.312;7.378;2023-03-20T07:20:02;97729.16;;;5.41;100.00
5872;BME280;2962;51.312;7.378;2023-03-20T07:22:29;97743.28;;;5.47;100.00
5872;BME280;2962;51.312;7.378;2023-03-20T07:24:55;97746.91;;;5.51;100.00
5872;BME280;2962;51.312;7.378;2023-03-20T07:27:21;97754.16;;;5.59;100.00
5872;BME280;2962;51.312;7.378;2023-03-20T07:29:47;97740.88;;;5.75;100.00
5872;BME280;2962;51.312;7.378;2023-03-20T07:32:12;97745.75;;;5.81;100.00
5872;BME280;2962;51.312;7.378;2023-03-20T07:34:37;97730.97;;;5.58;100.00
5872;BME280;2962;51.312;7.378;2023-03-20T07:37:03;97747.06;;;5.75;100.00
5872;BME280;2962;51.312;7.378;2023-03-20T07:39:29;97739.81;;;5.67;100.00
5872;BME280;2962;51.312;7.378;2023-03-20T07:41:54;97741.47;;;5.80;100.00
5872;BME280;2962;51.312;7.378;2023-03-20T07:44:20;97755.09;;;5.93;100.00
5872;BME280;2962;51.312;7.378;2023-03-20T07:46:46;97747.16;;;6.08;100.00
5872;BME280;2962;51.312;7.378;2023-03-20T07:49:15;97736.06;;;6.01;100.00
5872;BME280;2962;51.312;7.378;2023-03-20T07:51:47;97741.63;;;6.05;100.00
5872;BME280;2962;51.312;7.378;2023-03-20T07:54:13;97739.69;;;6.05;100.00
5872;BME280;2962;51.312;7.378;2023-03-20T07:56:39;97746.38;;;6.08;100.00
5872;BME280;2962;51.312;7.378;2023-03-20T07:59:04;97757.03;;;6.25;100.00
5872;BME280;2962;51.312;7.378;2023-03-20T08:01:30;97754.84;;;6.19;100.00
5872;BME280;2962;51.312;7.378;2023-03-20T08:03:55;97754.38;;;6.38;100.00
5872;BME280;2962;51.312;7.378;2023-03-20T08:06:21;97739.72;;;6.39;100.00
5872;BME280;2962;51.312;7.378;2023-03-20T08:08:46;97752.78;;;6.70;100.00
5872;BME280;2962;51.312;7.378;2023-03-20T08:11:13;97759.13;;;6.86;100.00
5872;BME280;2962;51.312;7.378;2023-03-20T08:13:39;97754.88;;;6.97;100.00
5872;BME280;2962;51.312;7.378;2023-03-20T08:16:05;97753.75;;;7.10;100.00
5872;BME280;2962;51.312;7.378;2023-03-20T08:18:30;97755.66;;;7.22;100.00
5872;BME280;2962;51.312;7.378;2023-03-20T08:20:56;97749.22;;;6.90;100.00
5872;BME280;2962;51.312;7.378;2023-03-20T08:23:21;97740.53;;;6.84;100.00
5872;BME280;2962;51.312;7.378;2023-03-20T08:25:48;97762.41;;;6.92;100.00
5872;BME280;2962;51.312;7.378;2023-03-20T08:28:13;97743.41;;;6.67;100.00
5872;BME280;2962;51.312;7.378;2023-03-20T08:30:39;97754.59;;;6.66;100.00
5872;BME280;2962;51.312;7.378;2023-03-20T08:33:05;97749.72;;;6.59;100.00
5872;BME280;2962;51.312;7.378;2023-03-20T08:35:30;97759.88;;;6.62;100.00
5872;BME280;2962;51.312;7.378;2023-03-20T08:37:56;97761.56;;;6.67;100.00
5872;BME280;2962;51.312;7.378;2023-03-20T08:40:21;97759.38;;;6.48;100.00
5872;BME280;2962;51.312;7.378;2023-03-20T08:42:46;97776.09;;;6.50;100.00
5872;BME280;2962;51.312;7.378;2023-03-20T08:45:12;97771.56;;;6.21;100.00
5872;BME280;2962;51.312;7.378;2023-03-20T08:47:37;97793.84;;;6.18;100.00
5872;BME280;2962;51.312;7.378;2023-03-20T08:50:03;97778.69;;;6.04;100.00
5872;BME280;2962;51.312;7.378;2023-03-20T08:52:29;97767.31;;;6.11;100.00
5872;BME280;2962;51.312;7.378;2023-03-20T08:54:55;97758.72;;;6.30;100.00
5872;BME280;2962;51.312;7.378;2023-03-20T08:57:20;97762.78;;;6.57;100.00
5872;BME280;2962;51.312;7.378;2023-03-20T08:59:45;97777.41;;;6.77;100.00
5872;BME280;2962;51.312;7.378;2023-03-20T09:02:11;97777.69;;;6.63;100.00
5872;BME280;2962;51.312;7.378;2023-03-20T09:04:36;97765.44;;;6.45;100.00
5872;BME280;2962;51.312;7.378;2023-03-20T09:07:02;97780.25;;;6.26;100.00
5872;BME280;2962;51.312;7.378;2023-03-20T09:09:28;97759.69;;;6.13;100.00
5872;BME280;2962;51.312;7.378;2023-03-20T09:11:57;97781.31;;;6.13;100.00
5872;BME280;2962;51.312;7.378;2023-03-20T09:14:24;97776.44;;;6.06;100.00
5872;BME280;2962;51.312;7.378;2023-03-20T09:16:50;97766.47;;;5.98;100.00
5872;BME280;2962;51.312;7.378;2023-03-20T09:19:16;97747.25;;;6.00;100.00
5872;BME280;2962;51.312;7.378;2023-03-20T09:21:42;97748.72;;;6.09;100.00
5872;BME280;2962;51.312;7.378;2023-03-20T09:24:07;97754.53;;;6.20;100.00
5872;BME280;2962;51.312;7.378;2023-03-20T09:26:33;97767.50;;;6.48;100.00
5872;BME280;2962;51.312;7.378;2023-03-20T09:28:58;97765.13;;;6.46;100.00
5872;BME280;2962;51.312;7.378;2023-03-20T09:31:24;97752.66;;;6.66;100.00
5872;BME280;2962;51.312;7.378;2023-03-20T09:33:49;97759.88;;;6.62;100.00
5872;BME280;2962;51.312;7.378;2023-03-20T09:36:15;97754.63;;;6.45;100.00
5872;BME280;2962;51.312;7.378;2023-03-20T09:38:41;97759.59;;;6.43;100.00
5872;BME280;2962;51.312;7.378;2023-03-20T09:41:13;97770.53;;;6.46;100.00
5872;BME280;2962;51.312;7.378;2023-03-20T09:43:54;97752.56;;;6.42;100.00
5872;BME280;2962;51.312;7.378;2023-03-20T09:46:52;97755.19;;;6.38;100.00
5872;BME280;2962;51.312;7.378;2023-03-20T09:49:39;97762.34;;;6.55;100.00
5872;BME280;2962;51.312;7.378;2023-03-20T09:52:17;97762.38;;;6.79;100.00
5872;BME280;2962;51.312;7.378;2023-03-20T09:54:48;97762.31;;;6.88;100.00
5872;BME280;2962;51.312;7.378;2023-03-20T09:57:24;97740.69;;;6.67;100.00
5872;BME280;2962;51.312;7.378;2023-03-20T09:59:55;97746.09;;;6.55;100.00
5872;BME280;2962;51.312;7.378;2023-03-20T10:02:37;97747.38;;;6.36;100.00
5872;BME280;2962;51.312;7.378;2023-03-20T10:05:16;97756.78;;;6.51;100.00
5872;BME280;2962;51.312;7.378;2023-03-20T10:07:42;97774.03;;;6.47;100.00
5872;BME280;2962;51.312;7.378;2023-03-20T10:10:12;97744.16;;;6.55;100.00
5872;BME280;2962;51.312;7.378;2023-03-20T10:12:54;97758.41;;;6.65;100.00
5872;BME280;2962;51.312;7.378;2023-03-20T10:18:15;97765.44;;;6.45;100.00
5872;BME280;2962;51.312;7.378;2023-03-20T10:20:49;97756.44;;;6.53;100.00
5872;BME280;2962;51.312;7.378;2023-03-20T10:23:32;97756.78;;;6.51;100.00
5872;BME280;2962;51.312;7.378;2023-03-20T10:26:05;97755.25;;;6.63;100.00
5872;BME280;2962;51.312;7.378;2023-03-20T10:39:33;97749.97;;;6.66;100.00
5872;BME280;2962;51.312;7.378;2023-03-20T10:42:12;97735.53;;;6.87;100.00
5872;BME280;2962;51.312;7.378;2023-03-20T10:44:42;97745.94;;;6.84;100.00
5872;BME280;2962;51.312;7.378;2023-03-20T10:47:12;97729.44;;;6.77;100.00
5872;BME280;2962;51.312;7.378;2023-03-20T10:49:45;97733.50;;;6.83;100.00
5872;BME280;2962;51.312;7.378;2023-03-20T10:52:18;97720.09;;;6.87;100.00
5872;BME280;2962;51.312;7.378;2023-03-20T10:54:53;97747.44;;;7.19;100.00
5872;BME280;2962;51.312;7.378;2023-03-20T10:57:25;97727.00;;;7.21;100.00
5872;BME280;2962;51.312;7.378;2023-03-20T10:59:55;97743.72;;;7.36;100.00
5872;BME280;2962;51.312;7.378;2023-03-20T11:02:24;97725.88;;;7.34;100.00
5872;BME280;2962;51.312;7.378;2023-03-20T11:04:50;97728.91;;;7.33;100.00
5872;BME280;2962;51.312;7.378;2023-03-20T11:07:25;97735.91;;;7.58;100.00
5872;BME280;2962;51.312;7.378;2023-03-20T11:10:08;97732.59;;;7.77;100.00
5872;BME280;2962;51.312;7.378;2023-03-20T11:12:48;97728.56;;;7.99;100.00
5872;BME280;2962;51.312;7.378;2023-03-20T11:15:29;97730.47;;;7.99;100.00
5872;BME280;2962;51.312;7.378;2023-03-20T11:17:57;97729.16;;;7.93;100.00
5872;BME280;2962;51.312;7.378;2023-03-20T11:20:25;97723.53;;;7.86;100.00
5872;BME280;2962;51.312;7.378;2023-03-20T11:23:01;97726.91;;;7.82;100.00
5872;BME280;2962;51.312;7.378;2023-03-20T11:25:38;97723.47;;;7.33;100.00
5872;BME280;2962;51.312;7.378;2023-03-20T11:33:43;97712.75;;;7.37;100.00
5872;BME280;2962;51.312;7.378;2023-03-20T11:36:21;97711.63;;;7.38;100.00
5872;BME280;2962;51.312;7.378;2023-03-20T11:38:49;97703.06;;;7.11;100.00
5872;BME280;2962;51.312;7.378;2023-03-20T11:41:21;97710.38;;;7.10;100.00
5872;BME280;2962;51.312;7.378;2023-03-20T11:43:46;97687.84;;;7.19;100.00
5872;BME280;2962;51.312;7.378;2023-03-20T11:46:12;97692.63;;;7.62;100.00
5872;BME280;2962;51.312;7.378;2023-03-20T11:48:40;97693.47;;;7.78;100.00
5872;BME280;2962;51.312;7.378;2023-03-20T11:51:08;97683.34;;;7.63;100.00
5872;BME280;2962;51.312;7.378;2023-03-20T11:53:54;97699.78;;;7.82;100.00
5872;BME280;2962;51.312;7.378;2023-03-20T11:56:51;97685.91;;;8.12;100.00
5872;BME280;2962;51.312;7.378;2023-03-20T11:59:17;97688.66;;;8.28;100.00
5872;BME280;2962;51.312;7.378;2023-03-20T12:01:46;97692.34;;;8.36;100.00
5872;BME280;2962;51.312;7.378;2023-03-20T12:04:16;97684.06;;;8.44;100.00
5872;BME280;2962;51.312;7.378;2023-03-20T12:06:52;97691.53;;;8.19;100.00
5872;BME280;2962;51.312;7.378;2023-03-20T12:17:38;97683.69;;;7.49;100.00
5872;BME280;2962;51.312;7.378;2023-03-20T12:20:13;97706.22;;;7.25;100.00
5872;BME280;2962;51.312;7.378;2023-03-20T12:22:55;97672.66;;;6.69;100.00
5872;BME280;2962;51.312;7.378;2023-03-20T12:25:26;97696.72;;;6.82;100.00
5872;BME280;2962;51.312;7.378;2023-03-20T12:28:03;97695.94;;;6.94;100.00
5872;BME280;2962;51.312;7.378;2023-03-20T12:30:38;97692.81;;;6.92;100.00
5872;BME280;2962;51.312;7.378;2023-03-20T12:35:43;97703.81;;;6.63;100.00
5872;BME280;2962;51.312;7.378;2023-03-20T12:38:22;97699.81;;;6.48;100.00
5872;BME280;2962;51.312;7.378;2023-03-20T12:40:50;97703.25;;;6.24;100.00
5872;BME280;2962;51.312;7.378;2023-03-20T12:43:23;97708.53;;;6.20;100.00
5872;BME280;2962;51.312;7.378;2023-03-20T12:46:24;97685.13;;;6.03;100.00
5872;BME280;2962;51.312;7.378;2023-03-20T12:57:15;97693.97;;;5.92;100.00
5872;BME280;2962;51.312;7.378;2023-03-20T13:00:13;97694.16;;;5.86;100.00
5872;BME280;2962;51.312;7.378;2023-03-20T13:02:51;97700.31;;;5.75;100.00
5872;BME280;2962;51.312;7.378;2023-03-20T13:08:08;97692.66;;;5.35;100.00
5872;BME280;2962;51.312;7.378;2023-03-20T13:10:51;97703.91;;;5.37;100.00
5872;BME280;2962;51.312;7.378;2023-03-20T13:13:33;97703.31;;;5.31;100.00
5872;BME280;2962;51.312;7.378;2023-03-20T13:21:15;97699.44;;;5.41;100.00
5872;BME280;2962;51.312;7.378;2023-03-20T13:29:34;97703.59;;;5.38;100.00
5872;BME280;2962;51.312;7.378;2023-03-20T13:32:12;97698.56;;;5.49;100.00
5872;BME280;2962;51.312;7.378;2023-03-20T13:37:35;97703.53;;;5.47;100.00
5872;BME280;2962;51.312;7.378;2023-03-20T13:40:28;97696.06;;;5.23;100.00
5872;BME280;2962;51.312;7.378;2023-03-20T13:45:46;97693.13;;;5.07;100.00
5872;BME280;2962;51.312;7.378;2023-03-20T13:48:26;97676.03;;;4.95;100.00
5872;BME280;2962;51.312;7.378;2023-03-20T13:51:13;97691.25;;;4.99;100.00
5872;BME280;2962;51.312;7.378;2023-03-20T14:01:44;97682.53;;;4.94;100.00
5872;BME280;2962;51.312;7.378;2023-03-20T14:04:16;97683.97;;;5.00;100.00
5872;BME280;2962;51.312;7.378;2023-03-20T14:09:42;97681.28;;;5.21;100.00
5872;BME280;2962;51.312;7.378;2023-03-20T14:12:09;97673.19;;;5.21;100.00
5872;BME280;2962;51.312;7.378;2023-03-20T14:14:46;97673.31;;;5.24;100.00
5872;BME280;2962;51.312;7.378;2023-03-20T14:19:48;97675.91;;;5.42;100.00
5872;BME280;2962;51.312;7.378;2023-03-20T14:22:27;97668.41;;;5.47;100.00
5872;BME280;2962;51.312;7.378;2023-03-20T14:24:59;97650.22;;;5.35;100.00
5872;BME280;2962;51.312;7.378;2023-03-20T14:27:29;97665.06;;;5.50;100.00
5872;BME280;2962;51.312;7.378;2023-03-20T14:35:44;97662.97;;;5.68;100.00
5872;BME280;2962;51.312;7.378;2023-03-20T14:38:22;97662.25;;;6.01;100.00
5872;BME280;2962;51.312;7.378;2023-03-20T14:41:01;97648.53;;;6.06;100.00
5872;BME280;2962;51.312;7.378;2023-03-20T14:46:30;97652.75;;;6.28;100.00
5872;BME280;2962;51.312;7.378;2023-03-20T14:51:43;97657.63;;;6.34;100.00
5872;BME280;2962;51.312;7.378;2023-03-20T14:54:28;97645.66;;;6.23;100.00
5872;BME280;2962;51.312;7.378;2023-03-20T14:56:54;97644.44;;;6.33;100.00
5872;BME280;2962;51.312;7.378;2023-03-20T14:59:22;97633.47;;;6.29;100.00
5872;BME280;2962;51.312;7.378;2023-03-20T15:01:57;97646.47;;;6.48;100.00
5872;BME280;2962;51.312;7.378;2023-03-20T15:04:41;97644.38;;;6.91;100.00
5872;BME280;2962;51.312;7.378;2023-03-20T15:07:16;97625.81;;;7.29;100.00
5872;BME280;2962;51.312;7.378;2023-03-20T15:09:44;97631.63;;;7.56;100.00
5872;BME280;2962;51.312;7.378;2023-03-20T15:12:14;97617.78;;;7.33;100.00
5872;BME280;2962;51.312;7.378;2023-03-20T15:14:55;97628.78;;;7.12;100.00
5872;BME280;2962;51.312;7.378;2023-03-20T15:17:23;97637.16;;;6.82;100.00
5872;BME280;2962;51.312;7.378;2023-03-20T15:19:49;97634.88;;;6.72;100.00
5872;BME280;2962;51.312;7.378;2023-03-20T15:22:17;97614.13;;;6.52;100.00
5872;BME280;2962;51.312;7.378;2023-03-20T15:24:51;97622.13;;;6.48;100.00
5872;BME280;2962;51.312;7.378;2023-03-20T15:27:17;97635.75;;;6.40;100.00
5872;BME280;2962;51.312;7.378;2023-03-20T15:29:48;97640.72;;;6.38;100.00
5872;BME280;2962;51.312;7.378;2023-03-20T15:32:14;97634.63;;;6.41;100.00
5872;BME280;2962;51.312;7.378;2023-03-20T15:34:41;97628.97;;;6.33;100.00
5872;BME280;2962;51.312;7.378;2023-03-20T15:37:13;97622.66;;;6.29;100.00
5872;BME280;2962;51.312;7.378;2023-03-20T15:39:48;97633.81;;;6.28;100.00